sensor_id;sensor_type;location;lat;lon;timestamp;P1;durP1;ratioP1;P2;durP2;ratioP2
21326;SDS011;10822;51.532;6.770;2023-06-05T00:00:15;3.63;;;1.48;;
21326;SDS011;10822;51.532;6.770;2023-06-05T00:02:41;1.48;;;1.23;;
21326;SDS011;10822;51.532;6.770;2023-06-05T00:05:07;3.92;;;1.50;;
21326;SDS011;10822;51.532;6.770;2023-06-05T00:07:35;2.25;;;1.25;;
21326;SDS011;10822;51.532;6.770;2023-06-05T00:10:05;2.17;;;1.40;;
21326;SDS011;10822;51.532;6.770;2023-06-05T00:12:31;1.80;;;1.20;;
21326;SDS011;10822;51.532;6.770;2023-06-05T00:14:57;2.42;;;1.60;;
21326;SDS011;10822;51.532;6.770;2023-06-05T00:17:25;2.15;;;1.30;;
21326;SDS011;10822;51.532;6.770;2023-06-05T00:19:51;3.40;;;1.52;;
21326;SDS011;10822;51.532;6.770;2023-06-05T00:22:17;2.90;;;1.30;;
21326;SDS011;10822;51.532;6.770;2023-06-05T00:24:46;1.88;;;1.30;;
21326;SDS011;10822;51.532;6.770;2023-06-05T00:27:12;3.50;;;1.55;;
21326;SDS011;10822;51.532;6.770;2023-06-05T00:29:38;2.05;;;1.33;;
21326;SDS011;10822;51.532;6.770;2023-06-05T00:32:04;3.72;;;1.55;;
21326;SDS011;10822;51.532;6.770;2023-06-05T00:34:30;3.70;;;1.30;;
21326;SDS011;10822;51.532;6.770;2023-06-05T00:36:56;3.15;;;1.60;;
21326;SDS011;10822;51.532;6.770;2023-06-05T00:39:23;3.25;;;1.50;;
21326;SDS011;10822;51.532;6.770;2023-06-05T00:41:48;2.10;;;1.38;;
21326;SDS011;10822;51.532;6.770;2023-06-05T00:44:14;2.28;;;1.48;;
21326;SDS011;10822;51.532;6.770;2023-06-05T00:46:42;2.80;;;1.50;;
21326;SDS011;10822;51.532;6.770;2023-06-05T00:49:08;2.55;;;1.60;;
21326;SDS011;10822;51.532;6.770;2023-06-05T00:51:34;1.75;;;1.65;;
21326;SDS011;10822;51.532;6.770;2023-06-05T00:54:01;4.03;;;1.80;;
21326;SDS011;10822;51.532;6.770;2023-06-05T00:56:27;5.47;;;2.03;;
21326;SDS011;10822;51.532;6.770;2023-06-05T00:58:53;2.78;;;1.88;;
21326;SDS011;10822;51.532;6.770;2023-06-05T01:01:20;3.30;;;1.67;;
21326;SDS011;10822;51.532;6.770;2023-06-05T01:03:49;2.95;;;1.80;;
21326;SDS011;10822;51.532;6.770;2023-06-05T01:06:15;3.35;;;1.40;;
21326;SDS011;10822;51.532;6.770;2023-06-05T01:08:45;6.30;;;1.73;;
21326;SDS011;10822;51.532;6.770;2023-06-05T01:11:16;2.22;;;1.48;;
21326;SDS011;10822;51.532;6.770;2023-06-05T01:13:44;3.85;;;1.63;;
21326;SDS011;10822;51.532;6.770;2023-06-05T01:16:12;2.97;;;1.80;;
21326;SDS011;10822;51.532;6.770;2023-06-05T01:18:39;3.17;;;1.45;;
21326;SDS011;10822;51.532;6.770;2023-06-05T01:21:10;3.25;;;1.65;;
21326;SDS011;10822;51.532;6.770;2023-06-05T01:23:41;3.65;;;1.98;;
21326;SDS011;10822;51.532;6.770;2023-06-05T01:26:09;2.88;;;1.65;;
21326;SDS011;10822;51.532;6.770;2023-06-05T01:28:38;4.95;;;1.90;;
21326;SDS011;10822;51.532;6.770;2023-06-05T01:31:05;4.32;;;1.70;;
21326;SDS011;10822;51.532;6.770;2023-06-05T01:33:40;3.88;;;2.00;;
21326;SDS011;10822;51.532;6.770;2023-06-05T01:36:12;5.00;;;2.17;;
21326;SDS011;10822;51.532;6.770;2023-06-05T01:38:39;3.58;;;1.77;;
21326;SDS011;10822;51.532;6.770;2023-06-05T01:41:07;5.68;;;1.75;;
21326;SDS011;10822;51.532;6.770;2023-06-05T01:43:35;3.38;;;1.70;;
21326;SDS011;10822;51.532;6.770;2023-06-05T01:46:01;5.32;;;1.98;;
21326;SDS011;10822;51.532;6.770;2023-06-05T01:48:27;4.50;;;1.80;;
21326;SDS011;10822;51.532;6.770;2023-06-05T01:50:55;2.92;;;1.60;;
21326;SDS011;10822;51.532;6.770;2023-06-05T01:53:21;4.72;;;1.80;;
21326;SDS011;10822;51.532;6.770;2023-06-05T01:55:47;2.75;;;2.10;;
21326;SDS011;10822;51.532;6.770;2023-06-05T01:58:13;4.32;;;1.92;;
21326;SDS011;10822;51.532;6.770;2023-06-05T02:00:40;2.75;;;1.90;;
21326;SDS011;10822;51.532;6.770;2023-06-05T02:03:07;2.75;;;1.60;;
21326;SDS011;10822;51.532;6.770;2023-06-05T02:05:33;3.53;;;1.90;;
21326;SDS011;10822;51.532;6.770;2023-06-05T02:08:00;2.95;;;1.73;;
21326;SDS011;10822;51.532;6.770;2023-06-05T02:10:30;4.18;;;2.20;;
21326;SDS011;10822;51.532;6.770;2023-06-05T02:12:57;4.47;;;1.98;;
21326;SDS011;10822;51.532;6.770;2023-06-05T02:15:22;2.90;;;2.00;;
21326;SDS011;10822;51.532;6.770;2023-06-05T02:17:49;5.68;;;2.38;;
21326;SDS011;10822;51.532;6.770;2023-06-05T02:20:23;4.45;;;2.00;;
21326;SDS011;10822;51.532;6.770;2023-06-05T02:22:50;4.40;;;1.85;;
21326;SDS011;10822;51.532;6.770;2023-06-05T02:25:17;3.30;;;2.03;;
21326;SDS011;10822;51.532;6.770;2023-06-05T02:27:46;3.03;;;1.90;;
21326;SDS011;10822;51.532;6.770;2023-06-05T02:30:12;3.00;;;1.90;;
21326;SDS011;10822;51.532;6.770;2023-06-05T02:32:38;4.53;;;2.03;;
21326;SDS011;10822;51.532;6.770;2023-06-05T02:35:14;3.53;;;1.80;;
21326;SDS011;10822;51.532;6.770;2023-06-05T02:37:40;3.53;;;2.22;;
21326;SDS011;10822;51.532;6.770;2023-06-05T02:40:12;3.40;;;2.22;;
21326;SDS011;10822;51.532;6.770;2023-06-05T02:42:39;3.38;;;2.03;;
21326;SDS011;10822;51.532;6.770;2023-06-05T02:45:15;5.40;;;2.55;;
21326;SDS011;10822;51.532;6.770;2023-06-05T02:47:55;4.38;;;2.10;;
21326;SDS011;10822;51.532;6.770;2023-06-05T02:50:21;2.97;;;2.03;;
21326;SDS011;10822;51.532;6.770;2023-06-05T02:52:47;5.45;;;2.15;;
21326;SDS011;10822;51.532;6.770;2023-06-05T02:55:13;6.32;;;2.30;;
21326;SDS011;10822;51.532;6.770;2023-06-05T02:57:41;3.05;;;2.03;;
21326;SDS011;10822;51.532;6.770;2023-06-05T03:00:08;7.85;;;3.00;;
21326;SDS011;10822;51.532;6.770;2023-06-05T03:02:34;4.25;;;2.30;;
21326;SDS011;10822;51.532;6.770;2023-06-05T03:05:03;2.50;;;1.85;;
21326;SDS011;10822;51.532;6.770;2023-06-05T03:07:29;3.45;;;2.15;;
21326;SDS011;10822;51.532;6.770;2023-06-05T03:09:58;4.35;;;2.15;;
21326;SDS011;10822;51.532;6.770;2023-06-05T03:12:25;3.67;;;2.55;;
21326;SDS011;10822;51.532;6.770;2023-06-05T03:14:50;4.15;;;2.70;;
21326;SDS011;10822;51.532;6.770;2023-06-05T03:17:16;3.60;;;2.20;;
21326;SDS011;10822;51.532;6.770;2023-06-05T03:19:42;4.55;;;2.47;;
21326;SDS011;10822;51.532;6.770;2023-06-05T03:22:08;4.05;;;2.22;;
21326;SDS011;10822;51.532;6.770;2023-06-05T03:24:34;5.57;;;2.50;;
21326;SDS011;10822;51.532;6.770;2023-06-05T03:27:02;3.05;;;2.40;;
21326;SDS011;10822;51.532;6.770;2023-06-05T03:29:29;4.97;;;2.67;;
21326;SDS011;10822;51.532;6.770;2023-06-05T03:31:55;3.88;;;2.50;;
21326;SDS011;10822;51.532;6.770;2023-06-05T03:34:21;5.75;;;2.75;;
21326;SDS011;10822;51.532;6.770;2023-06-05T03:36:51;6.63;;;2.80;;
21326;SDS011;10822;51.532;6.770;2023-06-05T03:39:17;3.78;;;2.40;;
21326;SDS011;10822;51.532;6.770;2023-06-05T03:41:43;4.43;;;3.00;;
21326;SDS011;10822;51.532;6.770;2023-06-05T03:44:09;5.93;;;3.28;;
21326;SDS011;10822;51.532;6.770;2023-06-05T03:46:35;5.32;;;2.92;;
21326;SDS011;10822;51.532;6.770;2023-06-05T03:49:02;5.57;;;3.00;;
21326;SDS011;10822;51.532;6.770;2023-06-05T03:51:33;4.43;;;3.00;;
21326;SDS011;10822;51.532;6.770;2023-06-05T03:54:01;4.18;;;3.15;;
21326;SDS011;10822;51.532;6.770;2023-06-05T03:56:28;5.13;;;3.10;;
21326;SDS011;10822;51.532;6.770;2023-06-05T03:58:59;5.95;;;3.42;;
21326;SDS011;10822;51.532;6.770;2023-06-05T04:01:33;6.18;;;3.30;;
21326;SDS011;10822;51.532;6.770;2023-06-05T04:04:04;5.80;;;3.50;;
21326;SDS011;10822;51.532;6.770;2023-06-05T04:06:30;4.03;;;3.05;;
21326;SDS011;10822;51.532;6.770;2023-06-05T04:09:01;5.50;;;3.05;;
21326;SDS011;10822;51.532;6.770;2023-06-05T04:11:35;6.70;;;3.42;;
21326;SDS011;10822;51.532;6.770;2023-06-05T04:14:01;5.45;;;3.65;;
21326;SDS011;10822;51.532;6.770;2023-06-05T04:16:27;5.28;;;3.47;;
21326;SDS011;10822;51.532;6.770;2023-06-05T04:18:54;5.32;;;3.30;;
21326;SDS011;10822;51.532;6.770;2023-06-05T04:21:20;4.88;;;3.50;;
21326;SDS011;10822;51.532;6.770;2023-06-05T04:23:47;6.18;;;3.40;;
21326;SDS011;10822;51.532;6.770;2023-06-05T04:26:15;6.15;;;3.67;;
21326;SDS011;10822;51.532;6.770;2023-06-05T04:28:42;5.35;;;3.10;;
21326;SDS011;10822;51.532;6.770;2023-06-05T04:31:08;4.30;;;3.40;;
21326;SDS011;10822;51.532;6.770;2023-06-05T04:33:35;6.90;;;3.55;;
21326;SDS011;10822;51.532;6.770;2023-06-05T04:36:00;5.43;;;3.63;;
21326;SDS011;10822;51.532;6.770;2023-06-05T04:38:29;5.03;;;3.65;;
21326;SDS011;10822;51.532;6.770;2023-06-05T04:40:56;6.43;;;4.05;;
21326;SDS011;10822;51.532;6.770;2023-06-05T04:43:22;7.03;;;3.70;;
21326;SDS011;10822;51.532;6.770;2023-06-05T04:45:48;5.85;;;4.15;;
21326;SDS011;10822;51.532;6.770;2023-06-05T04:48:14;5.72;;;3.58;;
21326;SDS011;10822;51.532;6.770;2023-06-05T04:50:40;6.13;;;4.10;;
21326;SDS011;10822;51.532;6.770;2023-06-05T04:53:07;7.95;;;3.80;;
21326;SDS011;10822;51.532;6.770;2023-06-05T04:55:33;12.38;;;4.10;;
21326;SDS011;10822;51.532;6.770;2023-06-05T04:57:59;6.93;;;3.83;;
21326;SDS011;10822;51.532;6.770;2023-06-05T05:00:25;7.32;;;4.05;;
21326;SDS011;10822;51.532;6.770;2023-06-05T05:02:53;7.22;;;4.03;;
21326;SDS011;10822;51.532;6.770;2023-06-05T05:05:19;7.75;;;4.22;;
21326;SDS011;10822;51.532;6.770;2023-06-05T05:07:45;6.18;;;4.10;;
21326;SDS011;10822;51.532;6.770;2023-06-05T05:10:11;7.25;;;3.92;;
21326;SDS011;10822;51.532;6.770;2023-06-05T05:12:40;6.55;;;3.85;;
21326;SDS011;10822;51.532;6.770;2023-06-05T05:15:06;6.50;;;4.20;;
21326;SDS011;10822;51.532;6.770;2023-06-05T05:17:32;6.97;;;3.97;;
21326;SDS011;10822;51.532;6.770;2023-06-05T05:19:58;7.72;;;4.15;;
21326;SDS011;10822;51.532;6.770;2023-06-05T05:22:25;4.15;;;3.72;;
21326;SDS011;10822;51.532;6.770;2023-06-05T05:24:51;6.75;;;4.13;;
21326;SDS011;10822;51.532;6.770;2023-06-05T05:27:17;5.57;;;4.28;;
21326;SDS011;10822;51.532;6.770;2023-06-05T05:29:43;5.45;;;4.00;;
21326;SDS011;10822;51.532;6.770;2023-06-05T05:32:09;8.77;;;4.00;;
21326;SDS011;10822;51.532;6.770;2023-06-05T05:34:36;5.20;;;4.03;;
21326;SDS011;10822;51.532;6.770;2023-06-05T05:37:02;5.65;;;3.95;;
21326;SDS011;10822;51.532;6.770;2023-06-05T05:39:28;5.63;;;4.22;;
21326;SDS011;10822;51.532;6.770;2023-06-05T05:41:54;5.63;;;4.28;;
21326;SDS011;10822;51.532;6.770;2023-06-05T05:44:20;7.63;;;4.38;;
21326;SDS011;10822;51.532;6.770;2023-06-05T05:46:49;8.38;;;4.13;;
21326;SDS011;10822;51.532;6.770;2023-06-05T05:49:15;6.95;;;4.10;;
21326;SDS011;10822;51.532;6.770;2023-06-05T05:51:41;6.70;;;4.30;;
21326;SDS011;10822;51.532;6.770;2023-06-05T05:54:10;5.65;;;4.25;;
21326;SDS011;10822;51.532;6.770;2023-06-05T05:56:36;5.93;;;4.57;;
21326;SDS011;10822;51.532;6.770;2023-06-05T05:59:02;6.90;;;4.90;;
21326;SDS011;10822;51.532;6.770;2023-06-05T06:01:29;7.05;;;4.65;;
21326;SDS011;10822;51.532;6.770;2023-06-05T06:03:55;5.38;;;4.20;;
21326;SDS011;10822;51.532;6.770;2023-06-05T06:06:21;7.43;;;4.03;;
21326;SDS011;10822;51.532;6.770;2023-06-05T06:08:47;5.70;;;3.92;;
21326;SDS011;10822;51.532;6.770;2023-06-05T06:11:13;4.68;;;3.75;;
21326;SDS011;10822;51.532;6.770;2023-06-05T06:13:40;8.48;;;4.32;;
21326;SDS011;10822;51.532;6.770;2023-06-05T06:16:06;5.93;;;4.20;;
21326;SDS011;10822;51.532;6.770;2023-06-05T06:18:32;4.75;;;3.42;;
21326;SDS011;10822;51.532;6.770;2023-06-05T06:20:58;6.38;;;3.70;;
21326;SDS011;10822;51.532;6.770;2023-06-05T06:23:24;6.55;;;4.00;;
21326;SDS011;10822;51.532;6.770;2023-06-05T06:25:50;5.32;;;3.58;;
21326;SDS011;10822;51.532;6.770;2023-06-05T06:28:17;8.93;;;3.78;;
21326;SDS011;10822;51.532;6.770;2023-06-05T06:30:44;5.05;;;3.75;;
21326;SDS011;10822;51.532;6.770;2023-06-05T06:33:10;6.55;;;3.67;;
21326;SDS011;10822;51.532;6.770;2023-06-05T06:35:36;6.35;;;4.00;;
21326;SDS011;10822;51.532;6.770;2023-06-05T06:38:02;5.97;;;4.68;;
21326;SDS011;10822;51.532;6.770;2023-06-05T06:40:28;5.93;;;3.95;;
21326;SDS011;10822;51.532;6.770;2023-06-05T06:42:54;5.25;;;3.75;;
21326;SDS011;10822;51.532;6.770;2023-06-05T06:45:20;5.88;;;3.90;;
21326;SDS011;10822;51.532;6.770;2023-06-05T06:47:46;5.40;;;4.03;;
21326;SDS011;10822;51.532;6.770;2023-06-05T06:50:13;6.40;;;3.88;;
21326;SDS011;10822;51.532;6.770;2023-06-05T06:52:39;5.90;;;3.88;;
21326;SDS011;10822;51.532;6.770;2023-06-05T06:55:05;6.22;;;4.60;;
21326;SDS011;10822;51.532;6.770;2023-06-05T06:57:31;6.13;;;4.20;;
21326;SDS011;10822;51.532;6.770;2023-06-05T06:59:57;5.78;;;4.30;;
21326;SDS011;10822;51.532;6.770;2023-06-05T07:02:24;9.38;;;4.32;;
21326;SDS011;10822;51.532;6.770;2023-06-05T07:04:50;6.30;;;4.22;;
21326;SDS011;10822;51.532;6.770;2023-06-05T07:07:19;6.35;;;4.47;;
21326;SDS011;10822;51.532;6.770;2023-06-05T07:09:48;6.18;;;4.53;;
21326;SDS011;10822;51.532;6.770;2023-06-05T07:12:17;7.40;;;5.00;;
21326;SDS011;10822;51.532;6.770;2023-06-05T07:14:45;6.13;;;4.22;;
21326;SDS011;10822;51.532;6.770;2023-06-05T07:17:11;6.90;;;4.28;;
21326;SDS011;10822;51.532;6.770;2023-06-05T07:19:37;7.45;;;4.45;;
21326;SDS011;10822;51.532;6.770;2023-06-05T07:22:04;8.75;;;4.78;;
21326;SDS011;10822;51.532;6.770;2023-06-05T07:24:30;5.85;;;4.45;;
21326;SDS011;10822;51.532;6.770;2023-06-05T07:26:58;8.48;;;4.60;;
21326;SDS011;10822;51.532;6.770;2023-06-05T07:29:25;6.78;;;4.60;;
21326;SDS011;10822;51.532;6.770;2023-06-05T07:31:52;7.13;;;4.68;;
21326;SDS011;10822;51.532;6.770;2023-06-05T07:34:18;6.55;;;4.18;;
21326;SDS011;10822;51.532;6.770;2023-06-05T07:36:45;5.40;;;4.20;;
21326;SDS011;10822;51.532;6.770;2023-06-05T07:39:11;6.63;;;3.85;;
21326;SDS011;10822;51.532;6.770;2023-06-05T07:41:38;9.52;;;4.47;;
21326;SDS011;10822;51.532;6.770;2023-06-05T07:44:05;6.40;;;3.80;;
21326;SDS011;10822;51.532;6.770;2023-06-05T07:46:31;9.25;;;4.25;;
21326;SDS011;10822;51.532;6.770;2023-06-05T07:48:57;6.28;;;3.47;;
21326;SDS011;10822;51.532;6.770;2023-06-05T07:51:23;5.93;;;3.88;;
21326;SDS011;10822;51.532;6.770;2023-06-05T07:53:49;6.30;;;3.85;;
21326;SDS011;10822;51.532;6.770;2023-06-05T07:56:17;6.53;;;3.80;;
21326;SDS011;10822;51.532;6.770;2023-06-05T07:58:48;8.63;;;3.80;;
21326;SDS011;10822;51.532;6.770;2023-06-05T08:01:16;8.48;;;3.85;;
21326;SDS011;10822;51.532;6.770;2023-06-05T08:03:42;6.03;;;3.55;;
21326;SDS011;10822;51.532;6.770;2023-06-05T08:06:13;5.75;;;3.38;;
21326;SDS011;10822;51.532;6.770;2023-06-05T08:08:45;6.10;;;3.58;;
21326;SDS011;10822;51.532;6.770;2023-06-05T08:11:13;6.72;;;3.38;;
21326;SDS011;10822;51.532;6.770;2023-06-05T08:13:39;6.00;;;3.50;;
21326;SDS011;10822;51.532;6.770;2023-06-05T08:16:31;7.60;;;3.65;;
21326;SDS011;10822;51.532;6.770;2023-06-05T08:19:03;5.82;;;3.25;;
21326;SDS011;10822;51.532;6.770;2023-06-05T08:21:29;5.75;;;3.47;;
21326;SDS011;10822;51.532;6.770;2023-06-05T08:23:55;7.75;;;3.53;;
21326;SDS011;10822;51.532;6.770;2023-06-05T08:26:21;3.83;;;3.22;;
21326;SDS011;10822;51.532;6.770;2023-06-05T08:28:48;7.95;;;3.10;;
21326;SDS011;10822;51.532;6.770;2023-06-05T08:31:17;4.45;;;2.83;;
21326;SDS011;10822;51.532;6.770;2023-06-05T08:33:43;4.70;;;3.13;;
21326;SDS011;10822;51.532;6.770;2023-06-05T08:36:12;4.70;;;3.00;;
21326;SDS011;10822;51.532;6.770;2023-06-05T08:38:42;5.38;;;3.15;;
21326;SDS011;10822;51.532;6.770;2023-06-05T08:41:08;5.03;;;3.05;;
21326;SDS011;10822;51.532;6.770;2023-06-05T08:43:37;8.38;;;3.22;;
21326;SDS011;10822;51.532;6.770;2023-06-05T08:46:04;5.47;;;3.35;;
21326;SDS011;10822;51.532;6.770;2023-06-05T08:48:35;4.90;;;2.95;;
21326;SDS011;10822;51.532;6.770;2023-06-05T08:51:03;5.72;;;3.55;;
21326;SDS011;10822;51.532;6.770;2023-06-05T08:53:31;6.85;;;2.97;;
21326;SDS011;10822;51.532;6.770;2023-06-05T08:55:59;4.57;;;2.47;;
21326;SDS011;10822;51.532;6.770;2023-06-05T08:58:25;6.47;;;3.63;;
21326;SDS011;10822;51.532;6.770;2023-06-05T09:00:51;4.95;;;3.13;;
21326;SDS011;10822;51.532;6.770;2023-06-05T09:03:18;8.00;;;2.88;;
21326;SDS011;10822;51.532;6.770;2023-06-05T09:05:45;3.65;;;2.60;;
21326;SDS011;10822;51.532;6.770;2023-06-05T09:08:11;6.68;;;2.70;;
21326;SDS011;10822;51.532;6.770;2023-06-05T09:10:37;4.88;;;3.03;;
21326;SDS011;10822;51.532;6.770;2023-06-05T09:13:03;6.15;;;2.70;;
21326;SDS011;10822;51.532;6.770;2023-06-05T09:15:30;4.95;;;2.75;;
21326;SDS011;10822;51.532;6.770;2023-06-05T09:18:05;5.90;;;3.22;;
21326;SDS011;10822;51.532;6.770;2023-06-05T09:20:33;5.82;;;2.92;;
21326;SDS011;10822;51.532;6.770;2023-06-05T09:23:00;4.53;;;2.38;;
21326;SDS011;10822;51.532;6.770;2023-06-05T09:25:26;5.28;;;2.85;;
21326;SDS011;10822;51.532;6.770;2023-06-05T09:28:06;4.63;;;3.15;;
21326;SDS011;10822;51.532;6.770;2023-06-05T09:30:32;4.88;;;2.50;;
21326;SDS011;10822;51.532;6.770;2023-06-05T09:33:08;4.15;;;2.63;;
21326;SDS011;10822;51.532;6.770;2023-06-05T09:35:34;3.20;;;2.17;;
21326;SDS011;10822;51.532;6.770;2023-06-05T09:38:04;4.53;;;2.50;;
21326;SDS011;10822;51.532;6.770;2023-06-05T09:40:36;3.83;;;2.30;;
21326;SDS011;10822;51.532;6.770;2023-06-05T09:43:07;4.95;;;2.50;;
21326;SDS011;10822;51.532;6.770;2023-06-05T09:45:42;3.40;;;1.98;;
21326;SDS011;10822;51.532;6.770;2023-06-05T09:48:15;5.07;;;2.50;;
21326;SDS011;10822;51.532;6.770;2023-06-05T09:50:41;5.88;;;2.20;;
21326;SDS011;10822;51.532;6.770;2023-06-05T09:53:10;3.92;;;2.10;;
21326;SDS011;10822;51.532;6.770;2023-06-05T09:55:38;6.95;;;2.00;;
21326;SDS011;10822;51.532;6.770;2023-06-05T09:58:04;4.30;;;2.33;;
21326;SDS011;10822;51.532;6.770;2023-06-05T10:00:38;5.50;;;2.10;;
21326;SDS011;10822;51.532;6.770;2023-06-05T10:03:08;4.30;;;2.53;;
21326;SDS011;10822;51.532;6.770;2023-06-05T10:05:42;3.45;;;1.98;;
21326;SDS011;10822;51.532;6.770;2023-06-05T10:10:44;4.57;;;2.20;;
21326;SDS011;10822;51.532;6.770;2023-06-05T10:13:10;3.20;;;1.90;;
21326;SDS011;10822;51.532;6.770;2023-06-05T10:15:36;3.50;;;2.28;;
21326;SDS011;10822;51.532;6.770;2023-06-05T10:18:03;4.25;;;1.80;;
21326;SDS011;10822;51.532;6.770;2023-06-05T10:20:30;4.20;;;2.13;;
21326;SDS011;10822;51.532;6.770;2023-06-05T10:22:56;4.70;;;2.30;;
21326;SDS011;10822;51.532;6.770;2023-06-05T10:25:22;6.72;;;2.03;;
21326;SDS011;10822;51.532;6.770;2023-06-05T10:32:58;4.20;;;2.35;;
21326;SDS011;10822;51.532;6.770;2023-06-05T10:40:23;3.45;;;1.90;;
21326;SDS011;10822;51.532;6.770;2023-06-05T10:42:50;3.65;;;1.85;;
21326;SDS011;10822;51.532;6.770;2023-06-05T10:45:29;4.20;;;2.10;;
21326;SDS011;10822;51.532;6.770;2023-06-05T10:47:57;2.90;;;1.90;;
21326;SDS011;10822;51.532;6.770;2023-06-05T10:50:23;4.40;;;1.90;;
21326;SDS011;10822;51.532;6.770;2023-06-05T10:52:52;4.80;;;2.08;;
21326;SDS011;10822;51.532;6.770;2023-06-05T10:55:20;4.25;;;1.75;;
21326;SDS011;10822;51.532;6.770;2023-06-05T11:00:35;3.05;;;1.80;;
21326;SDS011;10822;51.532;6.770;2023-06-05T11:03:02;4.65;;;1.80;;
21326;SDS011;10822;51.532;6.770;2023-06-05T11:05:28;3.92;;;2.00;;
21326;SDS011;10822;51.532;6.770;2023-06-05T11:08:11;4.40;;;2.10;;
21326;SDS011;10822;51.532;6.770;2023-06-05T11:13:43;3.40;;;1.90;;
21326;SDS011;10822;51.532;6.770;2023-06-05T11:16:24;4.82;;;2.00;;
21326;SDS011;10822;51.532;6.770;2023-06-05T11:18:51;5.88;;;1.90;;
21326;SDS011;10822;51.532;6.770;2023-06-05T11:21:32;5.88;;;2.30;;
21326;SDS011;10822;51.532;6.770;2023-06-05T11:24:13;2.95;;;1.85;;
21326;SDS011;10822;51.532;6.770;2023-06-05T11:26:41;4.03;;;2.17;;
21326;SDS011;10822;51.532;6.770;2023-06-05T11:29:11;5.60;;;2.65;;
21326;SDS011;10822;51.532;6.770;2023-06-05T11:31:39;3.75;;;2.20;;
21326;SDS011;10822;51.532;6.770;2023-06-05T11:34:10;5.50;;;2.28;;
21326;SDS011;10822;51.532;6.770;2023-06-05T11:36:37;3.83;;;2.00;;
21326;SDS011;10822;51.532;6.770;2023-06-05T11:39:03;3.50;;;1.95;;
21326;SDS011;10822;51.532;6.770;2023-06-05T11:41:29;9.35;;;2.55;;
21326;SDS011;10822;51.532;6.770;2023-06-05T11:43:55;3.88;;;2.13;;
21326;SDS011;10822;51.532;6.770;2023-06-05T11:46:35;3.00;;;2.00;;
21326;SDS011;10822;51.532;6.770;2023-06-05T11:49:02;2.80;;;2.03;;
21326;SDS011;10822;51.532;6.770;2023-06-05T11:51:34;3.78;;;1.90;;
21326;SDS011;10822;51.532;6.770;2023-06-05T11:54:00;3.35;;;2.15;;
21326;SDS011;10822;51.532;6.770;2023-06-05T11:56:26;2.97;;;2.17;;
21326;SDS011;10822;51.532;6.770;2023-06-05T11:58:53;3.55;;;2.10;;
21326;SDS011;10822;51.532;6.770;2023-06-05T12:01:20;4.47;;;2.10;;
21326;SDS011;10822;51.532;6.770;2023-06-05T12:03:47;4.00;;;2.17;;
21326;SDS011;10822;51.532;6.770;2023-06-05T12:06:13;5.07;;;2.30;;
21326;SDS011;10822;51.532;6.770;2023-06-05T12:08:41;4.13;;;2.58;;
21326;SDS011;10822;51.532;6.770;2023-06-05T12:11:20;5.25;;;2.45;;
21326;SDS011;10822;51.532;6.770;2023-06-05T12:13:51;3.20;;;2.33;;
21326;SDS011;10822;51.532;6.770;2023-06-05T12:16:17;5.30;;;2.30;;
21326;SDS011;10822;51.532;6.770;2023-06-05T12:18:44;4.85;;;2.28;;
21326;SDS011;10822;51.532;6.770;2023-06-05T12:21:21;3.35;;;2.50;;
21326;SDS011;10822;51.532;6.770;2023-06-05T12:23:47;2.97;;;2.28;;
21326;SDS011;10822;51.532;6.770;2023-06-05T12:26:14;5.10;;;2.17;;
21326;SDS011;10822;51.532;6.770;2023-06-05T12:28:40;3.72;;;2.13;;
21326;SDS011;10822;51.532;6.770;2023-06-05T12:31:10;4.75;;;2.40;;
21326;SDS011;10822;51.532;6.770;2023-06-05T12:33:48;3.53;;;2.20;;
21326;SDS011;10822;51.532;6.770;2023-06-05T12:36:14;4.10;;;2.42;;
21326;SDS011;10822;51.532;6.770;2023-06-05T12:38:41;5.68;;;2.88;;
21326;SDS011;10822;51.532;6.770;2023-06-05T12:41:08;7.93;;;2.80;;
21326;SDS011;10822;51.532;6.770;2023-06-05T12:43:36;3.20;;;2.63;;
21326;SDS011;10822;51.532;6.770;2023-06-05T12:46:02;4.93;;;2.85;;
21326;SDS011;10822;51.532;6.770;2023-06-05T12:48:28;3.92;;;2.83;;
21326;SDS011;10822;51.532;6.770;2023-06-05T12:50:54;4.03;;;2.50;;
21326;SDS011;10822;51.532;6.770;2023-06-05T12:53:21;4.85;;;2.50;;
21326;SDS011;10822;51.532;6.770;2023-06-05T12:55:51;5.75;;;2.72;;
21326;SDS011;10822;51.532;6.770;2023-06-05T12:58:17;4.25;;;2.75;;
21326;SDS011;10822;51.532;6.770;2023-06-05T13:00:43;4.72;;;2.80;;
21326;SDS011;10822;51.532;6.770;2023-06-05T13:03:09;5.07;;;2.67;;
21326;SDS011;10822;51.532;6.770;2023-06-05T13:05:37;4.65;;;2.70;;
21326;SDS011;10822;51.532;6.770;2023-06-05T13:08:03;3.50;;;2.90;;
21326;SDS011;10822;51.532;6.770;2023-06-05T13:10:29;4.20;;;2.78;;
21326;SDS011;10822;51.532;6.770;2023-06-05T13:12:55;3.72;;;2.58;;
21326;SDS011;10822;51.532;6.770;2023-06-05T13:15:21;4.20;;;2.75;;
21326;SDS011;10822;51.532;6.770;2023-06-05T13:17:47;3.60;;;2.65;;
21326;SDS011;10822;51.532;6.770;2023-06-05T13:20:14;4.95;;;2.63;;
21326;SDS011;10822;51.532;6.770;2023-06-05T13:22:40;4.88;;;2.63;;
21326;SDS011;10822;51.532;6.770;2023-06-05T13:25:07;6.80;;;3.20;;
21326;SDS011;10822;51.532;6.770;2023-06-05T13:27:33;4.93;;;2.70;;
21326;SDS011;10822;51.532;6.770;2023-06-05T13:29:59;4.82;;;2.80;;
21326;SDS011;10822;51.532;6.770;2023-06-05T13:32:28;3.90;;;2.65;;
21326;SDS011;10822;51.532;6.770;2023-06-05T13:34:55;4.07;;;2.60;;
21326;SDS011;10822;51.532;6.770;2023-06-05T13:37:22;3.92;;;2.80;;
21326;SDS011;10822;51.532;6.770;2023-06-05T13:39:48;3.78;;;2.50;;
21326;SDS011;10822;51.532;6.770;2023-06-05T13:42:14;3.00;;;2.33;;
21326;SDS011;10822;51.532;6.770;2023-06-05T13:44:40;4.45;;;2.97;;
21326;SDS011;10822;51.532;6.770;2023-06-05T13:47:06;5.70;;;3.63;;
21326;SDS011;10822;51.532;6.770;2023-06-05T13:49:35;3.72;;;2.70;;
21326;SDS011;10822;51.532;6.770;2023-06-05T13:52:01;4.15;;;2.55;;
21326;SDS011;10822;51.532;6.770;2023-06-05T13:54:28;4.97;;;2.63;;
21326;SDS011;10822;51.532;6.770;2023-06-05T13:56:54;5.82;;;2.65;;
21326;SDS011;10822;51.532;6.770;2023-06-05T13:59:20;4.25;;;3.00;;
21326;SDS011;10822;51.532;6.770;2023-06-05T14:01:45;5.10;;;2.55;;
21326;SDS011;10822;51.532;6.770;2023-06-05T14:04:11;4.47;;;2.63;;
21326;SDS011;10822;51.532;6.770;2023-06-05T14:06:37;6.18;;;3.20;;
21326;SDS011;10822;51.532;6.770;2023-06-05T14:09:05;4.03;;;2.38;;
21326;SDS011;10822;51.532;6.770;2023-06-05T14:11:31;4.30;;;2.70;;
21326;SDS011;10822;51.532;6.770;2023-06-05T14:13:57;4.10;;;2.47;;
21326;SDS011;10822;51.532;6.770;2023-06-05T14:16:23;3.90;;;2.70;;
21326;SDS011;10822;51.532;6.770;2023-06-05T14:18:50;3.85;;;2.30;;
21326;SDS011;10822;51.532;6.770;2023-06-05T14:21:16;3.08;;;2.35;;
21326;SDS011;10822;51.532;6.770;2023-06-05T14:23:42;2.92;;;2.50;;
21326;SDS011;10822;51.532;6.770;2023-06-05T14:26:08;3.42;;;2.40;;
21326;SDS011;10822;51.532;6.770;2023-06-05T14:28:35;3.38;;;2.67;;
21326;SDS011;10822;51.532;6.770;2023-06-05T14:31:01;3.83;;;2.65;;
21326;SDS011;10822;51.532;6.770;2023-06-05T14:33:27;4.28;;;2.58;;
21326;SDS011;10822;51.532;6.770;2023-06-05T14:35:53;5.03;;;2.67;;
21326;SDS011;10822;51.532;6.770;2023-06-05T14:38:19;5.13;;;2.40;;
21326;SDS011;10822;51.532;6.770;2023-06-05T14:40:45;3.40;;;2.63;;
21326;SDS011;10822;51.532;6.770;2023-06-05T14:43:15;3.08;;;2.10;;
21326;SDS011;10822;51.532;6.770;2023-06-05T14:45:41;5.85;;;2.60;;
21326;SDS011;10822;51.532;6.770;2023-06-05T14:48:07;4.68;;;2.35;;
21326;SDS011;10822;51.532;6.770;2023-06-05T14:50:37;3.45;;;2.30;;
21326;SDS011;10822;51.532;6.770;2023-06-05T14:53:03;2.75;;;2.25;;
21326;SDS011;10822;51.532;6.770;2023-06-05T14:55:29;3.13;;;2.30;;
21326;SDS011;10822;51.532;6.770;2023-06-05T14:57:55;3.33;;;2.42;;
21326;SDS011;10822;51.532;6.770;2023-06-05T15:00:21;5.05;;;2.50;;
21326;SDS011;10822;51.532;6.770;2023-06-05T15:02:47;3.30;;;2.40;;
21326;SDS011;10822;51.532;6.770;2023-06-05T15:05:13;3.22;;;2.42;;
21326;SDS011;10822;51.532;6.770;2023-06-05T15:07:40;4.97;;;2.20;;